createdAt,value
2022-08-22T00:02:04.383Z,89.35
2022-08-22T00:07:12.219Z,89.46
2022-08-22T00:12:20.086Z,89.48001
2022-08-22T00:17:26.625Z,89.6
2022-08-22T00:22:34.569Z,89.84
2022-08-22T00:27:42.622Z,90.1
2022-08-22T00:32:50.313Z,90.17
2022-08-22T00:37:57.979Z,90.16001
2022-08-22T00:44:36.699Z,90.35
2022-08-22T00:49:43.372Z,90.29
2022-08-22T00:54:51.101Z,90.54
2022-08-22T00:59:58.786Z,90.72001
2022-08-22T01:05:06.841Z,91.13
2022-08-22T01:10:15.258Z,91.43001
2022-08-22T01:15:23.176Z,91.56
2022-08-22T01:20:31.283Z,91.6
2022-08-22T01:25:37.844Z,91.23
2022-08-22T01:30:44.850Z,91.29001
2022-08-22T01:35:53.044Z,91.38
2022-08-22T01:41:01.822Z,91.34
2022-08-22T01:46:10.853Z,91.64001
2022-08-22T01:51:19.127Z,91.76001
2022-08-22T01:56:27.165Z,92.15
2022-08-22T02:01:34.462Z,92.3
2022-08-22T02:06:42.362Z,92.38
2022-08-22T02:11:49.989Z,92.36
2022-08-22T02:16:58.328Z,92.44
2022-08-22T02:22:05.679Z,92.61001
2022-08-22T02:27:13.522Z,92.58
2022-08-22T02:32:20.715Z,92.41
2022-08-22T02:37:29.046Z,92.35
2022-08-22T02:42:37.525Z,92.1
2022-08-22T02:47:45.301Z,92.12001
2022-08-22T02:52:53.522Z,91.84
2022-08-22T02:58:01.776Z,91.6
2022-08-22T03:03:09.590Z,91.81
2022-08-22T03:08:17.521Z,91.94
2022-08-22T03:13:33.578Z,92.07
2022-08-22T03:18:42.003Z,92.09
2022-08-22T03:23:48.697Z,91.41001
2022-08-22T03:30:28.079Z,91.8
2022-08-22T03:35:34.006Z,92.19001
2022-08-22T03:40:41.635Z,91.86
2022-08-22T03:45:49.509Z,92.28
2022-08-22T03:50:57.533Z,91.96
2022-08-22T03:56:12.397Z,92.57
2022-08-22T04:01:19.831Z,92.83999
2022-08-22T04:06:26.946Z,92.72
2022-08-22T04:11:34.617Z,93.34
2022-08-22T04:16:42.518Z,93.56
2022-08-22T04:21:49.658Z,93.73
2022-08-22T04:26:57.651Z,93.82
2022-08-22T04:32:06.122Z,93.97
2022-08-22T04:37:13.215Z,93.98001
2022-08-22T04:42:20.724Z,94.06
2022-08-22T04:47:28.218Z,93.98001
2022-08-22T04:52:35.994Z,94.11
2022-08-22T04:57:43.990Z,94.16
2022-08-22T05:02:52.317Z,94.21
2022-08-22T05:08:00.393Z,94.23
2022-08-22T05:13:08.887Z,94.27
2022-08-22T05:18:17.140Z,94.25
2022-08-22T05:23:24.423Z,94.2
2022-08-22T05:28:32.622Z,94.2
2022-08-22T05:33:41.210Z,94.22
2022-08-22T05:38:49.402Z,94.31
2022-08-22T05:43:57.527Z,94.40001
2022-08-22T05:49:06.001Z,94.36
2022-08-22T05:54:13.339Z,94.36
2022-08-22T05:59:21.176Z,94.38
2022-08-22T06:04:29.600Z,94.44
2022-08-22T06:09:37.693Z,94.52
2022-08-22T06:14:45.412Z,94.56
2022-08-22T06:19:53.809Z,94.57
2022-08-22T06:25:03.780Z,94.59
2022-08-22T06:30:10.925Z,94.67
2022-08-22T06:35:18.486Z,94.66001
2022-08-22T06:40:26.406Z,94.73001
2022-08-22T06:45:34.412Z,94.81
2022-08-22T06:50:43.381Z,94.82
2022-08-22T06:55:52.497Z,94.86
2022-08-22T07:01:00.107Z,94.79
2022-08-22T07:06:08.724Z,94.83001
2022-08-22T07:11:15.430Z,94.81
2022-08-22T07:16:23.445Z,94.67
2022-08-22T07:21:32.605Z,94.26001
2022-08-22T07:26:39.664Z,94.87
2022-08-22T07:31:47.420Z,94.77
2022-08-22T07:36:55.766Z,94.71
2022-08-22T07:42:03.510Z,94.71
2022-08-22T07:47:11.617Z,94.66001
2022-08-22T07:52:18.784Z,94.38
2022-08-22T07:57:28.349Z,94.52
2022-08-22T08:02:35.740Z,94.26001
2022-08-22T08:07:43.965Z,94.24
2022-08-22T08:12:51.490Z,94.21
2022-08-22T08:17:57.317Z,94.46
2022-08-22T08:23:05.650Z,94.31
2022-08-22T08:28:14.167Z,94.51
2022-08-22T08:33:21.759Z,94.62001
2022-08-22T08:38:28.944Z,94.42
2022-08-22T08:43:36.407Z,94.53
2022-08-22T08:48:44.338Z,94.5
2022-08-22T08:53:52.625Z,94.72
2022-08-22T08:59:00.054Z,94.75
2022-08-22T09:04:08.409Z,94.52
2022-08-22T09:09:16.375Z,94.67
2022-08-22T09:14:23.906Z,94.3
2022-08-22T09:19:32.086Z,94.31
2022-08-22T09:24:39.917Z,94.21
2022-08-22T09:29:47.669Z,94.38
2022-08-22T09:34:54.293Z,94.5
2022-08-22T09:40:02.070Z,93.97
2022-08-22T09:45:10.485Z,93.95
2022-08-22T09:50:18.008Z,93.74
2022-08-22T09:55:25.685Z,93.89
2022-08-22T10:00:34.136Z,93.66
2022-08-22T10:05:41.520Z,92.29
2022-08-22T10:10:49.178Z,92.51
2022-08-22T10:15:56.630Z,92.07
2022-08-22T10:21:04.536Z,92.83999
2022-08-22T10:26:52.427Z,90.44001
2022-08-22T10:32:00.214Z,91.15001
2022-08-22T10:37:06.785Z,90.61
2022-08-22T10:42:14.621Z,90.46
2022-08-22T10:47:21.828Z,89.96
2022-08-22T10:52:29.862Z,90.07
2022-08-22T10:57:36.872Z,90.18001
2022-08-22T11:02:44.085Z,89.88
2022-08-22T11:07:51.713Z,90.0
2022-08-22T11:12:58.964Z,87.83
2022-08-22T11:18:15.516Z,87.78
2022-08-22T11:23:23.098Z,86.07
2022-08-22T11:28:30.650Z,87.64
2022-08-22T11:33:39.115Z,86.79
2022-08-22T11:38:47.762Z,85.86
2022-08-22T11:43:56.778Z,84.86
2022-08-22T11:49:04.573Z,86.12
2022-08-22T11:54:12.483Z,84.68
2022-08-22T11:59:20.394Z,84.78
2022-08-22T12:04:28.247Z,84.2
2022-08-22T12:09:34.952Z,83.96
2022-08-22T12:14:43.191Z,84.71
2022-08-22T12:19:51.474Z,84.89
2022-08-22T12:25:00.077Z,84.55001
2022-08-22T12:30:08.729Z,83.34
2022-08-22T12:35:15.450Z,82.88
2022-08-22T12:40:23.944Z,82.12001
2022-08-22T12:45:31.032Z,83.78
2022-08-22T12:50:39.138Z,85.13
2022-08-22T12:55:46.149Z,84.87
2022-08-22T13:00:54.622Z,85.02
2022-08-22T13:06:03.613Z,84.46
2022-08-22T13:11:11.738Z,83.38
2022-08-22T13:16:19.834Z,84.18
2022-08-22T13:21:28.404Z,83.83
2022-08-22T13:26:37.529Z,84.06
2022-08-22T13:31:44.573Z,84.36
2022-08-22T13:36:52.720Z,83.18
2022-08-22T13:42:00.526Z,84.39
2022-08-22T13:47:08.171Z,84.82
2022-08-22T13:52:14.956Z,84.1
2022-08-22T13:57:23.290Z,84.23
2022-08-22T14:02:30.625Z,84.13
2022-08-22T14:07:37.800Z,83.24
2022-08-22T14:12:45.659Z,84.22
2022-08-22T14:17:54.085Z,83.68
2022-08-22T14:23:00.510Z,83.87
2022-08-22T14:28:09.678Z,84.07001
2022-08-22T14:33:17.544Z,84.00001
2022-08-22T14:38:24.980Z,84.3
2022-08-22T14:43:33.206Z,85.88
2022-08-22T14:48:41.003Z,85.18001
2022-08-22T14:53:47.676Z,85.42
2022-08-22T14:58:54.942Z,85.81
2022-08-22T15:04:03.666Z,85.99
2022-08-22T15:09:10.090Z,85.2
2022-08-22T15:14:18.967Z,85.07
2022-08-22T15:19:26.668Z,85.91001
2022-08-22T15:24:34.255Z,86.3
2022-08-22T15:29:42.488Z,85.87001
2022-08-22T15:34:50.238Z,86.04
2022-08-22T15:39:57.680Z,85.79
2022-08-22T15:45:04.297Z,85.93
2022-08-22T15:50:11.420Z,85.82
2022-08-22T15:55:19.071Z,85.94001
2022-08-22T16:00:27.594Z,85.85
2022-08-22T16:05:34.304Z,86.2
2022-08-22T16:10:41.496Z,86.27
2022-08-22T16:15:48.098Z,86.47
2022-08-22T16:20:56.704Z,87.05001
2022-08-22T16:26:05.531Z,86.87
2022-08-22T16:31:19.442Z,86.82
2022-08-22T16:36:27.069Z,87.0
2022-08-22T16:41:33.853Z,87.48
2022-08-22T16:46:43.108Z,87.36
2022-08-22T16:51:49.921Z,88.04
2022-08-22T16:56:57.185Z,88.28
2022-08-22T17:02:04.474Z,88.4
2022-08-22T17:07:13.372Z,88.8
2022-08-22T17:12:20.737Z,88.89
2022-08-22T17:17:27.288Z,89.84
2022-08-22T17:22:35.316Z,90.26
2022-08-22T17:27:43.022Z,90.48
2022-08-22T17:32:50.141Z,90.56
2022-08-22T17:37:57.784Z,90.51001
2022-08-22T17:43:06.330Z,90.37001
2022-08-22T17:48:13.830Z,90.47
2022-08-22T17:53:21.326Z,90.7
2022-08-22T17:58:29.452Z,90.4
2022-08-22T18:03:37.291Z,89.6
2022-08-22T18:08:50.162Z,89.97001
2022-08-22T18:13:56.893Z,90.06
2022-08-22T18:19:03.845Z,89.6
2022-08-22T18:24:11.129Z,89.44
2022-08-22T18:29:18.331Z,89.06
2022-08-22T18:34:25.523Z,89.01
2022-08-22T18:39:32.764Z,88.68
2022-08-22T18:44:41.044Z,88.69
2022-08-22T18:49:48.754Z,88.27
2022-08-22T18:54:56.883Z,88.63
2022-08-22T19:00:03.420Z,88.8
2022-08-22T19:05:12.060Z,88.54
2022-08-22T19:10:20.441Z,88.35
2022-08-22T19:15:26.971Z,88.46
2022-08-22T19:20:35.568Z,88.7
2022-08-22T19:25:43.266Z,89.08
2022-08-22T19:30:51.110Z,88.92
2022-08-22T19:35:58.333Z,89.00001
2022-08-22T19:41:05.677Z,89.06
2022-08-22T19:46:13.587Z,89.15
2022-08-22T19:51:21.750Z,89.46
2022-08-22T19:56:29.235Z,89.51
2022-08-22T20:01:37.323Z,89.28
2022-08-22T20:06:45.507Z,89.39
2022-08-22T20:11:52.757Z,89.49
2022-08-22T20:17:01.175Z,89.45
2022-08-22T20:22:09.165Z,89.01
2022-08-22T20:27:17.185Z,89.15
2022-08-22T20:32:24.960Z,89.2
2022-08-22T20:37:32.888Z,88.86001
2022-08-22T20:42:40.412Z,88.82
2022-08-22T20:47:48.867Z,88.78
2022-08-22T20:52:56.535Z,89.01
2022-08-22T20:58:03.783Z,89.98
2022-08-22T21:03:11.433Z,90.78
2022-08-22T21:08:19.146Z,91.49
2022-08-22T21:13:27.423Z,91.8
2022-08-22T21:18:36.085Z,92.0
2022-08-22T21:23:43.650Z,91.94
2022-08-22T21:28:51.417Z,91.98001
2022-08-22T21:33:58.886Z,91.99
2022-08-22T21:39:07.261Z,92.21
2022-08-22T21:44:15.450Z,92.11
2022-08-22T21:49:22.121Z,92.44
2022-08-22T21:54:30.014Z,92.16001
2022-08-22T21:59:38.296Z,92.07
2022-08-22T22:04:46.803Z,91.99
2022-08-22T22:09:54.773Z,92.12001
2022-08-22T22:15:02.789Z,92.18
2022-08-22T22:20:09.813Z,92.13
2022-08-22T22:25:18.054Z,91.91001
2022-08-22T22:30:26.332Z,92.36
2022-08-22T22:35:34.614Z,92.45
2022-08-22T22:40:43.865Z,92.24
2022-08-22T22:45:51.574Z,92.29
2022-08-22T22:50:58.805Z,92.12001
2022-08-22T22:56:06.246Z,91.99
2022-08-22T23:01:14.067Z,91.93
2022-08-22T23:06:30.282Z,91.8
2022-08-22T23:11:37.629Z,91.7
2022-08-22T23:16:45.713Z,91.55001
2022-08-22T23:21:53.542Z,91.26
2022-08-22T23:27:01.486Z,91.1
2022-08-22T23:32:08.597Z,91.11
2022-08-22T23:37:15.102Z,90.78
2022-08-22T23:42:23.025Z,90.91001
2022-08-22T23:47:30.870Z,90.81
2022-08-22T23:52:38.010Z,90.80001
2022-08-22T23:57:45.872Z,91.07
